createdAt,value
2018-01-25T00:01:41.698Z,3.57
2018-01-25T00:04:09.368Z,4.37
2018-01-25T00:06:36.922Z,7.00
2018-01-25T00:09:06.098Z,8.53
2018-01-25T00:11:33.675Z,5.20
2018-01-25T00:14:01.240Z,7.67
2018-01-25T00:16:28.818Z,6.77
2018-01-25T00:18:56.416Z,7.03
2018-01-25T00:24:14.292Z,8.47
2018-01-25T00:26:41.871Z,7.63
2018-01-25T00:29:09.767Z,8.73
2018-01-25T00:31:37.345Z,9.70
2018-01-25T00:34:04.914Z,8.07
2018-01-25T00:36:32.510Z,12.70
2018-01-25T00:39:00.118Z,17.37
2018-01-25T00:41:27.719Z,21.87
2018-01-25T00:43:55.307Z,17.27
2018-01-25T00:46:22.895Z,16.60
2018-01-25T00:48:50.484Z,14.83
2018-01-25T00:51:18.223Z,10.57
2018-01-25T00:53:45.794Z,10.40
2018-01-25T00:56:13.432Z,10.83
2018-01-25T00:58:41.062Z,12.23
2018-01-25T01:01:08.796Z,8.23
2018-01-25T01:03:36.838Z,6.03
2018-01-25T01:06:04.393Z,3.63
2018-01-25T01:08:31.940Z,3.33
2018-01-25T01:10:59.501Z,4.63
2018-01-25T01:13:27.055Z,3.10
2018-01-25T01:15:54.663Z,2.83
2018-01-25T01:18:22.208Z,3.50
2018-01-25T01:20:49.771Z,5.97
2018-01-25T01:23:17.389Z,2.67
2018-01-25T01:25:45.537Z,3.57
2018-01-25T01:28:13.149Z,3.10
2018-01-25T01:30:40.811Z,6.47
2018-01-25T01:33:08.727Z,4.50
2018-01-25T01:35:36.410Z,6.23
2018-01-25T01:38:03.963Z,5.50
2018-01-25T01:40:31.549Z,4.37
2018-01-25T01:42:59.129Z,7.77
2018-01-25T01:45:26.750Z,5.30
2018-01-25T01:47:54.411Z,4.37
2018-01-25T01:50:21.988Z,4.70
2018-01-25T01:52:49.531Z,5.57
2018-01-25T01:55:17.156Z,4.47
2018-01-25T01:57:44.726Z,3.73
2018-01-25T02:00:12.308Z,3.30
2018-01-25T02:02:39.885Z,2.60
2018-01-25T02:05:08.426Z,3.20
2018-01-25T02:07:36.167Z,2.60
2018-01-25T02:10:03.748Z,9.97
2018-01-25T02:12:31.504Z,3.73
2018-01-25T02:14:59.172Z,2.93
2018-01-25T02:17:27.014Z,4.80
2018-01-25T02:19:54.605Z,3.17
2018-01-25T02:22:22.639Z,2.50
2018-01-25T02:24:50.681Z,3.00
2018-01-25T02:27:20.371Z,3.00
2018-01-25T02:29:48.406Z,4.90
2018-01-25T02:32:16.442Z,5.07
2018-01-25T02:34:44.471Z,4.40
2018-01-25T02:37:12.995Z,3.47
2018-01-25T02:39:40.568Z,3.63
2018-01-25T02:42:08.173Z,4.10
2018-01-25T02:44:35.721Z,3.57
2018-01-25T02:47:04.027Z,5.00
2018-01-25T02:49:32.036Z,5.13
2018-01-25T02:51:59.989Z,3.87
2018-01-25T02:54:27.609Z,3.60
2018-01-25T02:56:55.196Z,4.40
2018-01-25T02:59:23.839Z,3.27
2018-01-25T03:01:51.782Z,3.77
2018-01-25T03:04:19.340Z,3.53
2018-01-25T03:06:46.988Z,2.83
2018-01-25T03:09:14.780Z,3.07
2018-01-25T03:11:44.011Z,3.17
2018-01-25T03:14:11.600Z,3.37
2018-01-25T03:16:39.215Z,2.87
2018-01-25T03:19:06.785Z,2.90
2018-01-25T03:21:34.477Z,2.77
2018-01-25T03:24:02.047Z,3.97
2018-01-25T03:26:29.649Z,2.70
2018-01-25T03:28:57.207Z,3.60
2018-01-25T03:31:25.408Z,3.57
2018-01-25T03:33:52.958Z,5.23
2018-01-25T03:36:20.535Z,3.90
2018-01-25T03:38:48.206Z,6.63
2018-01-25T03:41:15.792Z,6.90
2018-01-25T03:43:43.400Z,9.30
2018-01-25T03:46:12.894Z,12.40
2018-01-25T03:48:42.304Z,23.87
2018-01-25T03:51:10.577Z,30.73
2018-01-25T03:53:38.174Z,24.77
2018-01-25T03:56:05.734Z,5.73
2018-01-25T03:58:33.357Z,7.57
2018-01-25T04:01:00.968Z,11.40
2018-01-25T04:03:28.585Z,8.83
2018-01-25T04:05:56.182Z,8.17
2018-01-25T04:08:23.793Z,9.20
2018-01-25T04:10:51.364Z,8.60
2018-01-25T04:13:18.968Z,7.30
2018-01-25T04:15:46.571Z,5.10
2018-01-25T04:18:14.136Z,3.30
2018-01-25T04:20:41.739Z,1.80
2018-01-25T04:23:10.046Z,3.70
2018-01-25T04:25:37.617Z,1.70
2018-01-25T04:28:05.175Z,2.10
2018-01-25T04:30:32.749Z,2.30
2018-01-25T04:33:00.315Z,1.63
2018-01-25T04:35:27.928Z,1.80
2018-01-25T04:37:55.528Z,2.40
2018-01-25T04:40:23.086Z,3.53
2018-01-25T04:42:51.558Z,4.23
2018-01-25T04:45:19.110Z,3.70
2018-01-25T04:47:46.679Z,4.00
2018-01-25T04:50:14.289Z,3.03
2018-01-25T04:52:41.853Z,4.17
2018-01-25T04:55:09.643Z,5.07
2018-01-25T04:57:37.240Z,4.70
2018-01-25T05:00:05.333Z,4.07
2018-01-25T05:02:32.905Z,4.27
2018-01-25T05:05:00.487Z,3.30
2018-01-25T05:07:28.668Z,3.97
2018-01-25T05:09:56.237Z,6.60
2018-01-25T05:12:24.315Z,6.27
2018-01-25T05:14:51.993Z,14.10
2018-01-25T05:17:36.357Z,8.40
2018-01-25T05:20:03.970Z,8.10
2018-01-25T05:22:31.615Z,14.00
2018-01-25T05:24:59.228Z,8.67
2018-01-25T05:27:27.150Z,5.40
2018-01-25T05:29:54.742Z,7.47
2018-01-25T05:32:22.768Z,6.80
2018-01-25T05:34:50.351Z,8.57
2018-01-25T05:37:18.421Z,9.40
2018-01-25T05:39:46.007Z,15.40
2018-01-25T05:42:13.565Z,11.93
2018-01-25T05:44:41.112Z,13.60
2018-01-25T05:47:08.984Z,13.67
2018-01-25T05:49:36.605Z,11.33
2018-01-25T05:52:04.218Z,25.70
2018-01-25T05:54:31.787Z,28.50
2018-01-25T05:56:59.350Z,19.60
2018-01-25T05:59:26.927Z,21.40
2018-01-25T06:01:54.529Z,23.07
2018-01-25T06:04:23.177Z,26.20
2018-01-25T06:06:50.750Z,28.67
2018-01-25T06:09:18.323Z,24.30
2018-01-25T06:11:45.916Z,23.80
2018-01-25T06:14:13.487Z,23.23
2018-01-25T06:16:41.057Z,20.17
2018-01-25T06:19:09.152Z,23.67
2018-01-25T06:21:36.714Z,16.00
2018-01-25T06:24:04.281Z,18.33
2018-01-25T06:29:22.449Z,17.70
2018-01-25T06:31:50.032Z,17.53
2018-01-25T06:34:17.676Z,15.10
2018-01-25T06:36:45.257Z,18.40
2018-01-25T06:39:13.625Z,14.17
2018-01-25T06:41:41.205Z,16.00
2018-01-25T06:44:08.796Z,11.13
2018-01-25T06:46:36.385Z,9.67
2018-01-25T06:49:04.026Z,11.50
2018-01-25T06:51:31.612Z,12.60
2018-01-25T06:53:59.238Z,16.43
2018-01-25T06:56:26.839Z,21.80
2018-01-25T06:58:54.391Z,14.80
2018-01-25T07:01:21.939Z,52.20
2018-01-25T07:03:51.088Z,25.00
2018-01-25T07:06:18.812Z,32.60
2018-01-25T07:08:46.388Z,31.17
2018-01-25T07:11:17.962Z,39.50
2018-01-25T07:13:46.751Z,35.10
2018-01-25T07:16:15.204Z,38.73
2018-01-25T07:18:42.808Z,24.20
2018-01-25T07:21:10.697Z,33.17
2018-01-25T07:23:38.245Z,25.43
2018-01-25T07:26:05.892Z,21.27
2018-01-25T07:28:33.495Z,18.33
2018-01-25T07:31:01.120Z,20.93
2018-01-25T07:33:28.717Z,16.60
2018-01-25T07:35:56.278Z,18.63
2018-01-25T07:38:26.004Z,18.53
2018-01-25T07:40:53.658Z,22.33
2018-01-25T07:43:21.438Z,23.67
2018-01-25T07:45:50.783Z,18.80
2018-01-25T07:48:19.443Z,18.50
2018-01-25T07:50:48.631Z,29.50
2018-01-25T07:53:16.243Z,30.10
2018-01-25T07:55:43.824Z,24.83
2018-01-25T07:58:17.781Z,21.63
2018-01-25T08:00:45.349Z,20.27
2018-01-25T08:03:13.277Z,22.20
2018-01-25T08:05:41.834Z,18.40
2018-01-25T08:08:09.473Z,18.83
2018-01-25T08:10:37.068Z,17.70
2018-01-25T08:13:11.446Z,17.70
2018-01-25T08:15:39.056Z,15.40
2018-01-25T08:18:06.808Z,14.10
2018-01-25T08:20:35.195Z,17.97
2018-01-25T08:23:02.990Z,13.90
2018-01-25T08:25:30.584Z,16.27
2018-01-25T08:27:58.122Z,16.30
2018-01-25T08:30:25.706Z,13.50
2018-01-25T08:32:53.322Z,12.90
2018-01-25T08:35:20.905Z,13.10
2018-01-25T08:37:48.480Z,11.30
2018-01-25T08:42:49.884Z,15.07
2018-01-25T08:45:17.457Z,13.80
2018-01-25T08:47:45.055Z,18.53
2018-01-25T08:50:12.687Z,13.50
2018-01-25T08:52:40.247Z,13.83
2018-01-25T08:55:07.789Z,11.20
2018-01-25T08:57:35.418Z,10.00
2018-01-25T09:00:03.153Z,11.90
2018-01-25T09:05:20.713Z,10.40
2018-01-25T09:07:48.388Z,10.73
2018-01-25T09:10:15.930Z,19.67
2018-01-25T09:12:43.489Z,42.03
2018-01-25T09:15:11.836Z,29.93
2018-01-25T09:17:39.582Z,23.03
2018-01-25T09:20:07.209Z,15.63
2018-01-25T09:22:34.768Z,21.25
2018-01-25T09:25:02.374Z,16.60
2018-01-25T09:27:29.961Z,12.53
2018-01-25T09:29:57.509Z,10.73
2018-01-25T09:32:25.527Z,9.70
2018-01-25T09:34:53.077Z,11.40
2018-01-25T09:37:20.792Z,11.33
2018-01-25T09:39:48.383Z,15.70
2018-01-25T09:42:15.967Z,11.97
2018-01-25T09:44:43.533Z,13.17
2018-01-25T09:50:01.481Z,14.13
2018-01-25T09:52:29.101Z,13.43
2018-01-25T09:54:56.731Z,13.43
2018-01-25T09:57:24.836Z,15.20
2018-01-25T09:59:56.441Z,16.17
2018-01-25T10:02:25.744Z,17.10
2018-01-25T10:04:53.330Z,19.03
2018-01-25T10:09:55.080Z,18.47
2018-01-25T10:12:23.916Z,19.43
2018-01-25T10:14:51.493Z,17.57
2018-01-25T10:17:19.074Z,18.33
2018-01-25T10:19:46.638Z,17.97
2018-01-25T10:22:14.401Z,17.63
2018-01-25T10:24:42.043Z,18.97
2018-01-25T10:27:12.153Z,18.80
2018-01-25T10:29:39.812Z,20.23
2018-01-25T10:32:07.397Z,27.20
2018-01-25T10:34:34.980Z,21.83
2018-01-25T10:37:02.638Z,29.70
2018-01-25T10:39:30.191Z,22.70
2018-01-25T10:41:57.753Z,21.77
2018-01-25T10:44:26.025Z,35.17
2018-01-25T10:46:53.641Z,23.37
2018-01-25T10:49:21.307Z,26.40
2018-01-25T10:51:49.010Z,22.50
2018-01-25T10:54:16.652Z,21.47
2018-01-25T10:56:44.261Z,21.93
2018-01-25T10:59:12.148Z,21.17
2018-01-25T11:01:45.432Z,23.60
2018-01-25T11:04:20.022Z,20.20
2018-01-25T11:06:47.608Z,19.90
2018-01-25T11:09:16.108Z,18.30
2018-01-25T11:11:44.344Z,17.93
2018-01-25T11:14:12.041Z,18.27
2018-01-25T11:16:39.601Z,19.70
2018-01-25T11:19:07.225Z,18.33
2018-01-25T11:21:35.666Z,22.80
2018-01-25T11:24:05.829Z,31.17
2018-01-25T11:26:35.031Z,19.20
2018-01-25T11:29:03.412Z,22.13
2018-01-25T11:31:31.474Z,19.50
2018-01-25T11:33:59.589Z,18.00
2018-01-25T11:36:27.170Z,19.00
2018-01-25T11:38:55.018Z,20.20
2018-01-25T11:41:24.957Z,19.10
2018-01-25T11:43:52.557Z,18.60
2018-01-25T11:46:22.547Z,19.30
2018-01-25T11:48:51.000Z,20.67
2018-01-25T11:51:18.641Z,20.97
2018-01-25T11:53:46.250Z,20.50
2018-01-25T11:56:13.802Z,21.53
2018-01-25T11:58:41.415Z,19.27
2018-01-25T12:01:09.003Z,24.10
2018-01-25T12:03:36.574Z,23.67
2018-01-25T12:06:04.180Z,19.63
2018-01-25T12:08:31.764Z,20.33
2018-01-25T12:10:59.387Z,19.63
2018-01-25T12:13:26.976Z,19.80
2018-01-25T12:15:54.553Z,20.70
2018-01-25T12:18:22.635Z,23.37
2018-01-25T12:20:50.285Z,21.97
2018-01-25T12:23:17.853Z,21.50
2018-01-25T12:25:45.498Z,18.07
2018-01-25T12:28:13.101Z,18.23
2018-01-25T12:30:40.734Z,16.80
2018-01-25T12:33:08.541Z,16.27
2018-01-25T12:35:36.135Z,16.60
2018-01-25T12:38:03.693Z,16.30
2018-01-25T12:40:31.772Z,17.17
2018-01-25T12:42:59.333Z,18.90
2018-01-25T12:45:26.889Z,18.37
2018-01-25T12:47:54.480Z,21.10
2018-01-25T12:50:22.036Z,17.40
2018-01-25T12:52:49.709Z,52.83
2018-01-25T12:55:17.308Z,32.40
2018-01-25T12:57:44.929Z,28.40
2018-01-25T13:00:12.564Z,24.57
2018-01-25T13:02:40.165Z,16.50
2018-01-25T13:07:57.979Z,107.23
2018-01-25T13:10:26.101Z,19.27
2018-01-25T13:12:53.727Z,19.67
2018-01-25T13:15:21.638Z,19.20
2018-01-25T13:17:49.626Z,16.87
2018-01-25T13:20:17.355Z,15.47
2018-01-25T13:22:45.144Z,20.73
2018-01-25T13:25:12.846Z,106.90
2018-01-25T13:27:40.464Z,18.77
2018-01-25T13:30:08.136Z,19.37
2018-01-25T13:32:35.729Z,19.30
2018-01-25T13:35:03.350Z,19.60
2018-01-25T13:37:30.942Z,27.57
2018-01-25T13:39:58.493Z,19.07
2018-01-25T13:42:26.248Z,16.13
2018-01-25T13:44:53.830Z,15.63
2018-01-25T13:47:21.444Z,17.90
2018-01-25T13:49:49.075Z,16.90
2018-01-25T13:52:22.918Z,18.77
2018-01-25T13:54:50.504Z,19.20
2018-01-25T13:57:18.069Z,18.27
2018-01-25T13:59:45.632Z,20.57
2018-01-25T14:02:13.215Z,15.70
2018-01-25T14:04:40.805Z,19.23
2018-01-25T14:07:08.809Z,19.30
2018-01-25T14:09:36.482Z,20.07
2018-01-25T14:12:04.042Z,20.50
2018-01-25T14:14:31.627Z,15.80
2018-01-25T14:16:59.245Z,17.60
2018-01-25T14:19:27.010Z,16.00
2018-01-25T14:21:54.604Z,17.13
2018-01-25T14:24:22.260Z,19.23
2018-01-25T14:26:49.862Z,16.10
2018-01-25T14:29:18.227Z,19.50
2018-01-25T14:31:45.846Z,18.57
2018-01-25T14:34:13.532Z,20.40
2018-01-25T14:36:41.277Z,17.00
2018-01-25T14:39:09.137Z,20.40
2018-01-25T14:41:36.775Z,18.40
2018-01-25T14:44:04.343Z,20.67
2018-01-25T14:46:31.993Z,19.20
2018-01-25T14:48:59.677Z,20.23
2018-01-25T14:51:27.299Z,19.50
2018-01-25T14:53:54.918Z,19.83
2018-01-25T14:56:24.616Z,16.73
2018-01-25T14:58:52.216Z,17.73
2018-01-25T15:01:19.838Z,21.00
2018-01-25T15:03:47.444Z,54.57
2018-01-25T15:06:15.051Z,44.77
2018-01-25T15:08:44.236Z,26.47
2018-01-25T15:11:16.316Z,39.27
2018-01-25T15:13:43.898Z,36.43
2018-01-25T15:16:12.752Z,25.87
2018-01-25T15:18:40.451Z,20.87
2018-01-25T15:21:09.992Z,18.50
2018-01-25T15:23:37.600Z,19.00
2018-01-25T15:26:06.996Z,24.00
2018-01-25T15:28:34.588Z,18.77
2018-01-25T15:31:02.218Z,26.20
2018-01-25T15:33:29.895Z,21.57
2018-01-25T15:35:57.514Z,20.70
2018-01-25T15:38:26.016Z,22.73
2018-01-25T15:40:54.132Z,23.00
2018-01-25T15:43:22.110Z,23.60
2018-01-25T15:45:49.705Z,32.63
2018-01-25T15:48:17.613Z,28.80
2018-01-25T15:50:45.254Z,24.27
2018-01-25T15:53:16.061Z,22.40
2018-01-25T15:55:44.168Z,20.37
2018-01-25T15:58:11.764Z,19.93
2018-01-25T16:00:39.662Z,22.30
2018-01-25T16:03:07.453Z,20.77
2018-01-25T16:05:35.111Z,23.67
2018-01-25T16:08:02.653Z,24.37
2018-01-25T16:10:31.415Z,25.87
2018-01-25T16:12:59.197Z,24.60
2018-01-25T16:15:29.427Z,32.40
2018-01-25T16:17:57.068Z,28.87
2018-01-25T16:20:24.683Z,25.47
2018-01-25T16:22:52.659Z,27.67
2018-01-25T16:25:20.284Z,28.47
2018-01-25T16:27:47.885Z,26.20
2018-01-25T16:30:15.511Z,31.70
2018-01-25T16:32:43.081Z,32.27
2018-01-25T16:35:11.207Z,29.23
2018-01-25T16:37:38.810Z,30.40
2018-01-25T16:40:06.596Z,28.80
2018-01-25T16:42:34.190Z,29.10
2018-01-25T16:45:01.834Z,30.90
2018-01-25T16:47:29.417Z,29.47
2018-01-25T16:49:56.986Z,27.10
2018-01-25T16:52:24.588Z,26.80
2018-01-25T16:54:52.168Z,26.90
2018-01-25T16:57:19.738Z,29.93
2018-01-25T16:59:47.341Z,32.97
2018-01-25T17:02:14.922Z,39.00
2018-01-25T17:04:42.885Z,36.47
2018-01-25T17:07:10.968Z,32.63
2018-01-25T17:09:38.520Z,29.50
2018-01-25T17:12:06.133Z,33.90
2018-01-25T17:14:33.734Z,26.87
2018-01-25T17:17:01.366Z,35.80
2018-01-25T17:19:29.656Z,40.10
2018-01-25T17:21:57.258Z,36.10
2018-01-25T17:24:24.837Z,37.47
2018-01-25T17:26:52.493Z,37.90
2018-01-25T17:29:20.128Z,38.43
2018-01-25T17:31:47.698Z,38.13
2018-01-25T17:34:15.421Z,35.37
2018-01-25T17:36:43.044Z,32.87
2018-01-25T17:39:11.918Z,26.23
2018-01-25T17:41:39.498Z,33.10
2018-01-25T17:44:07.078Z,31.17
2018-01-25T17:46:34.662Z,35.43
2018-01-25T17:49:02.253Z,35.20
2018-01-25T17:51:29.831Z,36.70
2018-01-25T17:53:57.403Z,39.03
2018-01-25T17:56:24.956Z,37.20
2018-01-25T17:58:52.583Z,45.10
2018-01-25T18:01:20.170Z,44.70
2018-01-25T18:03:47.775Z,39.70
2018-01-25T18:06:15.431Z,45.50
2018-01-25T18:08:44.004Z,42.10
2018-01-25T18:11:11.636Z,38.13
2018-01-25T18:13:39.241Z,35.37
2018-01-25T18:16:06.846Z,36.93
2018-01-25T18:18:34.419Z,31.67
2018-01-25T18:21:02.005Z,33.30
2018-01-25T18:23:30.453Z,34.50
2018-01-25T18:25:58.132Z,33.23
2018-01-25T18:28:25.745Z,35.67
2018-01-25T18:30:53.462Z,50.97
2018-01-25T18:33:21.581Z,35.80
2018-01-25T18:35:49.140Z,46.57
2018-01-25T18:38:16.779Z,43.20
2018-01-25T18:40:44.562Z,38.10
2018-01-25T18:46:02.447Z,35.90
2018-01-25T18:48:30.017Z,32.90
2018-01-25T18:50:57.622Z,35.30
2018-01-25T18:53:25.947Z,31.20
2018-01-25T18:55:53.537Z,31.90
2018-01-25T18:58:22.196Z,31.97
2018-01-25T19:00:49.842Z,35.10
2018-01-25T19:03:18.827Z,35.20
2018-01-25T19:05:46.385Z,31.97
2018-01-25T19:08:14.029Z,36.03
2018-01-25T19:10:41.751Z,33.63
2018-01-25T19:13:11.585Z,33.53
2018-01-25T19:15:39.537Z,36.10
2018-01-25T19:18:07.124Z,40.13
2018-01-25T19:20:34.669Z,37.90
2018-01-25T19:23:03.007Z,34.80
2018-01-25T19:25:30.572Z,34.47
2018-01-25T19:28:03.889Z,33.90
2018-01-25T19:30:37.583Z,35.00
2018-01-25T19:33:05.642Z,36.97
2018-01-25T19:35:35.446Z,39.47
2018-01-25T19:38:03.116Z,37.87
2018-01-25T19:40:30.779Z,34.80
2018-01-25T19:43:00.600Z,34.43
2018-01-25T19:45:28.229Z,32.37
2018-01-25T19:47:55.860Z,36.17
2018-01-25T19:50:23.650Z,36.60
2018-01-25T19:52:51.252Z,35.50
2018-01-25T19:55:25.142Z,36.37
2018-01-25T19:57:52.873Z,34.60
2018-01-25T20:00:23.617Z,33.00
2018-01-25T20:02:51.265Z,38.57
2018-01-25T20:05:19.078Z,36.47
2018-01-25T20:07:46.721Z,36.23
2018-01-25T20:10:14.289Z,39.27
2018-01-25T20:12:41.959Z,38.13
2018-01-25T20:15:11.033Z,35.30
2018-01-25T20:17:38.604Z,40.70
2018-01-25T20:20:06.243Z,40.33
2018-01-25T20:22:38.780Z,40.80
2018-01-25T20:25:06.440Z,36.03
2018-01-25T20:27:34.076Z,36.40
2018-01-25T20:33:08.887Z,40.47
2018-01-25T20:35:37.135Z,34.37
2018-01-25T20:38:04.724Z,35.63
2018-01-25T20:40:32.329Z,34.70
2018-01-25T20:42:59.914Z,36.07
2018-01-25T20:45:27.497Z,35.53
2018-01-25T20:47:55.157Z,39.00
2018-01-25T20:50:22.784Z,36.17
2018-01-25T20:52:50.408Z,39.60
2018-01-25T20:55:18.905Z,37.87
2018-01-25T20:57:46.498Z,39.20
2018-01-25T21:00:14.107Z,39.57
2018-01-25T21:05:09.507Z,34.20
2018-01-25T21:07:37.070Z,35.40
2018-01-25T21:10:04.684Z,34.37
2018-01-25T21:12:32.271Z,37.33
2018-01-25T21:14:59.846Z,37.30
2018-01-25T21:17:27.488Z,36.50
2018-01-25T21:19:55.148Z,36.07
2018-01-25T21:22:23.129Z,39.50
2018-01-25T21:24:50.689Z,36.73
2018-01-25T21:27:18.318Z,35.93
2018-01-25T21:29:45.910Z,37.40
2018-01-25T21:32:13.509Z,36.90
2018-01-25T21:34:41.110Z,34.07
2018-01-25T21:37:09.026Z,33.03
2018-01-25T21:39:36.648Z,31.80
2018-01-25T21:42:04.256Z,30.37
2018-01-25T21:44:31.821Z,51.30
2018-01-25T21:46:59.476Z,49.47
2018-01-25T21:49:28.295Z,41.87
2018-01-25T21:51:55.869Z,42.00
2018-01-25T21:54:23.923Z,43.70
2018-01-25T21:56:51.548Z,41.90
2018-01-25T21:59:19.163Z,35.17
2018-01-25T22:01:46.786Z,41.03
2018-01-25T22:04:14.377Z,39.13
2018-01-25T22:06:42.041Z,34.80
2018-01-25T22:09:10.386Z,37.53
2018-01-25T22:11:38.005Z,37.47
2018-01-25T22:14:05.586Z,35.37
2018-01-25T22:16:33.174Z,33.30
2018-01-25T22:21:52.106Z,34.20
2018-01-25T22:24:19.751Z,35.57
2018-01-25T22:26:47.301Z,35.23
2018-01-25T22:29:14.973Z,35.10
2018-01-25T22:31:42.552Z,41.20
2018-01-25T22:34:10.238Z,43.97
2018-01-25T22:36:37.840Z,40.67
2018-01-25T22:39:05.515Z,41.57
2018-01-25T22:41:39.445Z,55.80
2018-01-25T22:44:07.250Z,39.40
2018-01-25T22:46:34.840Z,39.47
2018-01-25T22:49:02.378Z,40.00
2018-01-25T22:51:30.234Z,38.93
2018-01-25T22:54:03.909Z,35.17
2018-01-25T22:56:31.566Z,37.50
2018-01-25T22:58:59.165Z,38.43
2018-01-25T23:01:37.587Z,37.10
2018-01-25T23:04:06.834Z,39.33
2018-01-25T23:06:36.065Z,36.17
2018-01-25T23:09:04.029Z,36.67
2018-01-25T23:11:34.330Z,38.83
2018-01-25T23:14:02.096Z,39.30
2018-01-25T23:16:29.722Z,38.10
2018-01-25T23:18:57.345Z,36.60
2018-01-25T23:21:25.657Z,35.67
2018-01-25T23:23:53.223Z,34.37
2018-01-25T23:26:20.820Z,33.30
2018-01-25T23:28:48.362Z,31.53
2018-01-25T23:31:15.961Z,32.17
2018-01-25T23:33:43.550Z,33.87
2018-01-25T23:36:11.168Z,35.73
2018-01-25T23:38:38.792Z,30.03
2018-01-25T23:41:06.453Z,29.13
2018-01-25T23:43:33.998Z,28.47
2018-01-25T23:46:01.563Z,29.57
2018-01-25T23:48:30.341Z,30.43
2018-01-25T23:50:57.967Z,29.00
2018-01-25T23:53:25.540Z,32.00
2018-01-25T23:55:53.131Z,28.63
2018-01-25T23:58:23.241Z,27.93
